createdAt,value
2018-11-05T00:00:16.944Z,83.15
2018-11-05T00:02:45.664Z,83.27
2018-11-05T00:05:13.997Z,83.55
2018-11-05T00:07:42.351Z,83.59
2018-11-05T00:10:10.726Z,83.42
2018-11-05T00:12:40.200Z,83.69
2018-11-05T00:15:08.907Z,84.53
2018-11-05T00:17:37.435Z,84.40
2018-11-05T00:20:07.202Z,84.30
2018-11-05T00:22:35.777Z,84.62
2018-11-05T00:25:04.636Z,85.37
2018-11-05T00:27:32.836Z,85.67
2018-11-05T00:30:01.070Z,86.39
2018-11-05T00:32:29.341Z,86.54
2018-11-05T00:34:57.696Z,86.30
2018-11-05T00:37:25.943Z,86.97
2018-11-05T00:39:54.175Z,87.05
2018-11-05T00:42:22.409Z,87.73
2018-11-05T00:44:50.608Z,87.59
2018-11-05T00:47:18.847Z,87.85
2018-11-05T00:49:47.046Z,87.77
2018-11-05T00:52:15.367Z,88.02
2018-11-05T00:54:43.632Z,87.92
2018-11-05T00:57:11.896Z,87.70
2018-11-05T00:59:40.091Z,87.42
2018-11-05T01:02:08.328Z,87.00
2018-11-05T01:04:36.546Z,86.72
2018-11-05T01:07:04.907Z,87.06
2018-11-05T01:09:33.124Z,87.13
2018-11-05T01:12:01.921Z,87.33
2018-11-05T01:14:30.192Z,87.23
2018-11-05T01:16:58.467Z,87.22
2018-11-05T01:19:26.663Z,87.53
2018-11-05T01:21:55.252Z,88.13
2018-11-05T01:24:23.538Z,88.30
2018-11-05T01:26:51.810Z,88.61
2018-11-05T01:29:20.273Z,88.58
2018-11-05T01:31:48.519Z,88.10
2018-11-05T01:34:16.776Z,88.22
2018-11-05T01:36:45.029Z,87.97
2018-11-05T01:39:13.220Z,87.85
2018-11-05T01:41:41.424Z,87.94
2018-11-05T01:44:09.890Z,87.92
2018-11-05T01:46:38.123Z,87.66
2018-11-05T01:49:06.323Z,87.44
2018-11-05T01:51:34.826Z,87.39
2018-11-05T01:54:03.240Z,87.19
2018-11-05T01:56:31.536Z,86.98
2018-11-05T01:59:00.177Z,86.86
2018-11-05T02:01:28.472Z,86.86
2018-11-05T02:03:56.637Z,87.12
2018-11-05T02:06:24.883Z,86.87
2018-11-05T02:08:53.125Z,87.03
2018-11-05T02:11:21.368Z,86.88
2018-11-05T02:13:49.590Z,86.43
2018-11-05T02:16:18.767Z,86.71
2018-11-05T02:18:47.041Z,86.54
2018-11-05T02:21:15.348Z,86.70
2018-11-05T02:23:43.847Z,86.38
2018-11-05T02:26:12.063Z,86.07
2018-11-05T02:28:40.417Z,86.05
2018-11-05T02:31:08.657Z,85.58
2018-11-05T02:33:37.177Z,85.51
2018-11-05T02:36:05.473Z,85.25
2018-11-05T02:38:33.689Z,85.55
2018-11-05T02:41:01.942Z,85.73
2018-11-05T02:43:30.199Z,85.20
2018-11-05T02:45:58.482Z,85.39
2018-11-05T02:48:26.693Z,85.75
2018-11-05T02:50:54.948Z,85.62
2018-11-05T02:53:23.233Z,85.53
2018-11-05T02:55:51.716Z,85.77
2018-11-05T02:58:19.955Z,85.83
2018-11-05T03:00:48.172Z,86.16
2018-11-05T03:03:16.410Z,85.39
2018-11-05T03:05:44.688Z,85.03
2018-11-05T03:08:12.931Z,84.92
2018-11-05T03:10:41.207Z,84.95
2018-11-05T03:13:10.539Z,85.16
2018-11-05T03:15:38.792Z,85.58
2018-11-05T03:18:07.025Z,85.91
2018-11-05T03:20:35.249Z,86.19
2018-11-05T03:23:03.467Z,86.48
2018-11-05T03:25:32.965Z,87.09
2018-11-05T03:28:01.479Z,87.69
2018-11-05T03:30:29.720Z,87.71
2018-11-05T03:32:57.940Z,88.09
2018-11-05T03:35:26.111Z,88.06
2018-11-05T03:37:54.362Z,87.97
2018-11-05T03:40:22.589Z,88.02
2018-11-05T03:42:50.765Z,88.09
2018-11-05T03:45:18.956Z,88.53
2018-11-05T03:47:47.194Z,88.75
2018-11-05T03:50:17.468Z,88.86
2018-11-05T03:52:46.152Z,88.86
2018-11-05T03:55:15.395Z,88.69
2018-11-05T03:57:43.679Z,88.62
2018-11-05T04:00:14.551Z,88.74
2018-11-05T04:02:42.754Z,88.38
2018-11-05T04:05:11.104Z,88.60
2018-11-05T04:07:39.864Z,88.65
2018-11-05T04:10:09.420Z,88.78
2018-11-05T04:12:37.674Z,89.06
2018-11-05T04:15:06.490Z,88.96
2018-11-05T04:17:34.728Z,88.68
2018-11-05T04:20:04.279Z,89.69
2018-11-05T04:22:32.496Z,89.66
2018-11-05T04:25:02.065Z,89.69
2018-11-05T04:27:30.265Z,89.23
2018-11-05T04:29:58.492Z,89.02
2018-11-05T04:32:26.692Z,89.05
2018-11-05T04:34:54.886Z,88.89
2018-11-05T04:37:23.458Z,88.81
2018-11-05T04:39:51.680Z,88.40
2018-11-05T04:42:19.925Z,88.17
2018-11-05T04:44:48.176Z,88.14
2018-11-05T04:47:16.380Z,88.45
2018-11-05T04:49:44.582Z,88.50
2018-11-05T04:52:12.835Z,88.64
2018-11-05T04:54:41.012Z,89.40
2018-11-05T04:57:09.207Z,89.73
2018-11-05T04:59:38.308Z,89.56
2018-11-05T05:02:07.336Z,89.41
2018-11-05T05:04:35.812Z,89.46
2018-11-05T05:07:03.996Z,89.33
2018-11-05T05:09:32.204Z,89.44
2018-11-05T05:12:00.428Z,89.52
2018-11-05T05:14:28.612Z,89.67
2018-11-05T05:16:56.840Z,89.25
2018-11-05T05:19:25.017Z,88.96
2018-11-05T05:21:53.287Z,88.89
2018-11-05T05:24:21.591Z,89.19
2018-11-05T05:26:49.804Z,89.16
2018-11-05T05:29:18.068Z,89.11
2018-11-05T05:31:46.327Z,89.04
2018-11-05T05:34:14.612Z,88.59
2018-11-05T05:36:42.850Z,88.38
2018-11-05T05:39:11.219Z,88.19
2018-11-05T05:41:39.843Z,87.92
2018-11-05T05:44:08.179Z,87.96
2018-11-05T05:46:36.391Z,88.37
2018-11-05T05:49:05.076Z,88.65
2018-11-05T05:51:33.296Z,88.52
2018-11-05T05:54:01.542Z,88.05
2018-11-05T05:56:29.761Z,87.94
2018-11-05T05:58:58.004Z,87.56
2018-11-05T06:01:26.280Z,87.79
2018-11-05T06:03:54.607Z,88.02
2018-11-05T06:06:22.923Z,87.79
2018-11-05T06:08:51.096Z,87.92
2018-11-05T06:11:19.295Z,87.51
2018-11-05T06:13:47.539Z,87.65
2018-11-05T06:16:15.731Z,87.53
2018-11-05T06:18:43.976Z,87.46
2018-11-05T06:21:12.568Z,87.69
2018-11-05T06:23:40.774Z,87.78
2018-11-05T06:26:09.013Z,87.04
2018-11-05T06:28:37.422Z,87.10
2018-11-05T06:31:05.922Z,87.24
2018-11-05T06:33:34.261Z,87.51
2018-11-05T06:36:02.564Z,87.98
2018-11-05T06:38:30.788Z,87.60
2018-11-05T06:40:59.008Z,87.01
2018-11-05T06:43:27.216Z,87.02
2018-11-05T06:45:55.439Z,86.83
2018-11-05T06:48:23.836Z,86.93
2018-11-05T06:50:52.072Z,86.36
2018-11-05T06:53:20.696Z,85.72
2018-11-05T06:55:48.915Z,85.42
2018-11-05T06:58:17.171Z,85.32
2018-11-05T07:00:45.489Z,85.61
2018-11-05T07:03:13.692Z,85.57
2018-11-05T07:05:42.036Z,85.51
2018-11-05T07:08:10.255Z,86.32
2018-11-05T07:10:38.488Z,85.59
2018-11-05T07:13:06.829Z,85.86
2018-11-05T07:15:35.087Z,85.89
2018-11-05T07:18:04.508Z,85.98
2018-11-05T07:20:32.719Z,85.90
2018-11-05T07:23:00.960Z,85.71
2018-11-05T07:25:29.192Z,85.77
2018-11-05T07:27:57.491Z,85.63
2018-11-05T07:30:25.763Z,85.57
2018-11-05T07:32:54.894Z,85.54
2018-11-05T07:35:23.182Z,85.47
2018-11-05T07:37:51.451Z,84.58
2018-11-05T07:40:19.970Z,84.67
2018-11-05T07:42:48.208Z,84.36
2018-11-05T07:45:19.824Z,84.05
2018-11-05T07:47:48.172Z,83.79
2018-11-05T07:50:17.471Z,83.44
2018-11-05T07:52:45.731Z,83.33
2018-11-05T07:55:15.238Z,82.78
2018-11-05T07:57:44.387Z,83.12
2018-11-05T08:00:20.480Z,83.52
2018-11-05T08:02:50.836Z,83.38
2018-11-05T08:05:20.063Z,83.73
2018-11-05T08:07:48.691Z,83.94
2018-11-05T08:10:17.031Z,84.17
2018-11-05T08:12:45.415Z,84.25
2018-11-05T08:15:17.497Z,83.65
2018-11-05T08:17:46.607Z,83.66
2018-11-05T08:20:14.895Z,83.35
2018-11-05T08:22:43.372Z,82.12
2018-11-05T08:25:12.344Z,81.63
2018-11-05T08:27:40.659Z,80.74
2018-11-05T08:30:13.569Z,79.85
2018-11-05T08:32:42.760Z,78.26
2018-11-05T08:35:11.814Z,78.49
2018-11-05T08:37:40.715Z,76.87
2018-11-05T08:40:13.333Z,74.95
2018-11-05T08:42:41.957Z,75.29
2018-11-05T08:45:11.081Z,74.70
2018-11-05T08:47:39.347Z,74.70
2018-11-05T08:50:10.341Z,74.33
2018-11-05T08:52:38.548Z,74.51
2018-11-05T08:55:10.218Z,73.44
2018-11-05T08:57:38.884Z,72.87
2018-11-05T09:00:16.281Z,73.31
2018-11-05T09:02:45.632Z,73.70
2018-11-05T09:05:14.352Z,73.44
2018-11-05T09:07:43.379Z,73.90
2018-11-05T09:10:11.895Z,75.15
2018-11-05T09:12:40.136Z,75.43
2018-11-05T09:15:11.235Z,75.39
2018-11-05T09:17:40.097Z,74.96
2018-11-05T09:20:10.324Z,74.28
2018-11-05T09:22:38.852Z,74.09
2018-11-05T09:25:08.163Z,72.49
2018-11-05T09:27:36.651Z,72.14
2018-11-05T09:30:08.224Z,73.93
2018-11-05T09:32:36.488Z,75.39
2018-11-05T09:35:05.432Z,75.68
2018-11-05T09:37:33.728Z,75.48
2018-11-05T09:40:02.522Z,75.18
2018-11-05T09:42:30.891Z,75.45
2018-11-05T09:44:59.193Z,74.43
2018-11-05T09:47:27.428Z,73.46
2018-11-05T09:49:55.728Z,73.03
2018-11-05T09:52:23.947Z,71.31
2018-11-05T09:54:52.263Z,70.79
2018-11-05T09:57:20.605Z,70.46
2018-11-05T09:59:48.791Z,70.46
2018-11-05T10:02:17.088Z,70.04
2018-11-05T10:04:45.654Z,67.69
2018-11-05T10:07:13.600Z,65.92
2018-11-05T10:09:41.965Z,64.12
2018-11-05T10:12:10.272Z,62.01
2018-11-05T10:14:38.520Z,62.09
2018-11-05T10:17:07.178Z,61.83
2018-11-05T10:19:35.415Z,59.90
2018-11-05T10:22:03.699Z,58.28
2018-11-05T10:24:32.032Z,57.82
2018-11-05T10:27:00.249Z,56.73
2018-11-05T10:29:28.622Z,56.50
2018-11-05T10:31:56.845Z,56.45
2018-11-05T10:34:27.166Z,58.51
2018-11-05T10:36:55.520Z,58.87
2018-11-05T10:39:23.844Z,56.32
2018-11-05T10:41:52.069Z,57.55
2018-11-05T10:44:20.358Z,57.09
2018-11-05T10:46:48.621Z,54.96
2018-11-05T10:49:16.845Z,55.32
2018-11-05T10:51:45.080Z,57.05
2018-11-05T10:54:13.524Z,56.69
2018-11-05T10:56:41.944Z,57.32
2018-11-05T10:59:10.185Z,56.22
2018-11-05T11:01:44.114Z,55.05
2018-11-05T11:04:17.884Z,51.26
2018-11-05T11:06:46.115Z,48.17
2018-11-05T11:09:14.475Z,46.50
2018-11-05T11:11:42.789Z,49.06
2018-11-05T11:14:11.025Z,51.75
2018-11-05T11:16:39.285Z,54.41
2018-11-05T11:19:07.529Z,55.11
2018-11-05T11:21:35.862Z,56.45
2018-11-05T11:24:04.336Z,56.75
2018-11-05T11:26:32.585Z,56.94
2018-11-05T11:29:00.962Z,57.46
2018-11-05T11:31:29.107Z,56.88
2018-11-05T11:33:57.413Z,56.91
2018-11-05T11:36:26.454Z,57.78
2018-11-05T11:38:54.789Z,57.69
2018-11-05T11:41:23.056Z,58.95
2018-11-05T11:43:51.324Z,59.29
2018-11-05T11:46:19.622Z,59.80
2018-11-05T11:48:47.904Z,58.90
2018-11-05T11:51:16.177Z,58.88
2018-11-05T11:53:44.368Z,57.49
2018-11-05T11:56:12.614Z,57.77
2018-11-05T11:58:40.857Z,57.68
2018-11-05T12:01:09.146Z,56.96
2018-11-05T12:03:37.340Z,58.19
2018-11-05T12:06:05.864Z,56.81
2018-11-05T12:08:34.129Z,57.82
2018-11-05T12:11:03.187Z,56.27
2018-11-05T12:13:31.425Z,57.13
2018-11-05T12:15:59.750Z,57.44
2018-11-05T12:18:28.275Z,56.26
2018-11-05T12:20:56.504Z,55.54
2018-11-05T12:23:24.705Z,57.31
2018-11-05T12:25:53.008Z,57.51
2018-11-05T12:28:21.302Z,57.30
2018-11-05T12:30:49.503Z,57.93
2018-11-05T12:33:17.793Z,57.87
2018-11-05T12:35:46.109Z,59.39
2018-11-05T12:38:14.368Z,58.87
2018-11-05T12:40:42.627Z,59.00
2018-11-05T12:43:10.836Z,59.00
2018-11-05T12:45:39.092Z,58.79
2018-11-05T12:48:07.351Z,58.81
2018-11-05T12:50:35.598Z,58.67
2018-11-05T12:53:03.884Z,59.30
2018-11-05T12:55:32.190Z,59.12
2018-11-05T12:58:00.430Z,58.73
2018-11-05T13:00:28.653Z,58.88
2018-11-05T13:02:58.124Z,59.45
2018-11-05T13:05:27.389Z,58.74
2018-11-05T13:07:55.664Z,59.80
2018-11-05T13:10:24.546Z,60.17
2018-11-05T13:12:52.992Z,59.81
2018-11-05T13:15:21.382Z,59.43
2018-11-05T13:17:49.599Z,59.62
2018-11-05T13:20:20.507Z,59.77
2018-11-05T13:22:49.011Z,59.52
2018-11-05T13:25:17.216Z,58.88
2018-11-05T13:27:46.888Z,58.45
2018-11-05T13:30:15.452Z,59.07
2018-11-05T13:32:44.217Z,58.74
2018-11-05T13:35:14.664Z,58.93
2018-11-05T13:37:43.360Z,58.78
2018-11-05T13:40:14.706Z,59.05
2018-11-05T13:42:43.514Z,59.10
2018-11-05T13:45:12.989Z,59.33
2018-11-05T13:47:42.116Z,60.21
2018-11-05T13:50:10.748Z,60.72
2018-11-05T13:52:39.306Z,60.56
2018-11-05T13:55:10.094Z,61.02
2018-11-05T13:57:39.886Z,61.32
2018-11-05T14:00:11.631Z,60.59
2018-11-05T14:02:40.232Z,60.51
2018-11-05T14:05:09.431Z,61.34
2018-11-05T14:07:37.764Z,61.60
2018-11-05T14:10:11.550Z,61.25
2018-11-05T14:12:39.885Z,61.62
2018-11-05T14:15:08.171Z,61.12
2018-11-05T14:17:36.404Z,61.36
2018-11-05T14:20:05.768Z,59.46
2018-11-05T14:22:34.112Z,59.13
2018-11-05T14:25:02.391Z,59.43
2018-11-05T14:27:31.121Z,59.87
2018-11-05T14:30:00.502Z,60.28
2018-11-05T14:32:28.172Z,60.44
2018-11-05T14:34:56.407Z,60.58
2018-11-05T14:37:24.626Z,62.53
2018-11-05T14:39:52.869Z,62.23
2018-11-05T14:42:21.140Z,62.06
2018-11-05T14:44:49.378Z,61.80
2018-11-05T14:47:17.649Z,62.12
2018-11-05T14:49:45.897Z,62.59
2018-11-05T14:52:14.136Z,61.28
2018-11-05T14:54:42.364Z,61.52
2018-11-05T14:57:10.717Z,60.34
2018-11-05T14:59:39.036Z,60.37
2018-11-05T15:02:12.915Z,60.50
2018-11-05T15:04:41.119Z,60.84
2018-11-05T15:07:09.339Z,60.55
2018-11-05T15:09:37.540Z,60.51
2018-11-05T15:12:05.837Z,60.24
2018-11-05T15:14:34.189Z,60.32
2018-11-05T15:17:02.740Z,58.77
2018-11-05T15:19:31.282Z,58.94
2018-11-05T15:21:59.313Z,59.10
2018-11-05T15:24:27.561Z,59.83
2018-11-05T15:26:55.992Z,59.62
2018-11-05T15:29:24.134Z,61.15
2018-11-05T15:31:52.489Z,61.72
2018-11-05T15:34:20.767Z,62.89
2018-11-05T15:36:49.024Z,63.05
2018-11-05T15:39:18.079Z,63.22
2018-11-05T15:41:46.354Z,63.43
2018-11-05T15:44:14.646Z,63.53
2018-11-05T15:46:43.293Z,62.20
2018-11-05T15:49:11.644Z,62.51
2018-11-05T15:51:40.189Z,63.47
2018-11-05T15:54:08.327Z,62.69
2018-11-05T15:56:36.627Z,62.53
2018-11-05T15:59:04.952Z,62.77
2018-11-05T16:01:33.277Z,63.35
2018-11-05T16:04:01.564Z,63.49
2018-11-05T16:06:29.851Z,63.04
2018-11-05T16:08:58.163Z,62.95
2018-11-05T16:11:26.480Z,64.07
2018-11-05T16:13:54.755Z,65.09
2018-11-05T16:16:23.068Z,66.61
2018-11-05T16:18:51.345Z,68.84
2018-11-05T16:21:19.774Z,68.87
2018-11-05T16:23:48.099Z,69.05
2018-11-05T16:26:16.636Z,68.66
2018-11-05T16:28:44.906Z,68.56
2018-11-05T16:31:13.316Z,67.86
2018-11-05T16:33:41.651Z,67.97
2018-11-05T16:36:09.910Z,68.45
2018-11-05T16:38:38.213Z,68.71
2018-11-05T16:41:06.515Z,69.69
2018-11-05T16:43:34.742Z,69.04
2018-11-05T16:46:03.294Z,69.36
2018-11-05T16:48:31.619Z,69.77
2018-11-05T16:50:59.952Z,70.07
2018-11-05T16:53:28.231Z,71.47
2018-11-05T16:55:56.522Z,70.03
2018-11-05T16:58:24.869Z,70.41
2018-11-05T17:00:53.256Z,71.08
2018-11-05T17:03:21.431Z,70.97
2018-11-05T17:05:49.669Z,72.14
2018-11-05T17:08:17.941Z,72.34
2018-11-05T17:10:46.760Z,72.71
2018-11-05T17:13:15.141Z,73.20
2018-11-05T17:15:43.423Z,73.61
2018-11-05T17:18:11.671Z,73.45
2018-11-05T17:20:39.945Z,74.29
2018-11-05T17:23:08.296Z,74.90
2018-11-05T17:25:36.563Z,74.30
2018-11-05T17:28:04.980Z,73.91
2018-11-05T17:30:33.236Z,73.96
2018-11-05T17:33:01.463Z,73.18
2018-11-05T17:35:29.754Z,72.80
2018-11-05T17:37:58.812Z,73.05
2018-11-05T17:40:27.078Z,72.59
2018-11-05T17:42:55.344Z,73.26
2018-11-05T17:45:23.696Z,72.47
2018-11-05T17:47:51.959Z,72.36
2018-11-05T17:50:21.261Z,72.02
2018-11-05T17:52:49.561Z,72.43
2018-11-05T17:55:17.988Z,72.88
2018-11-05T17:57:47.148Z,73.36
2018-11-05T18:00:16.906Z,73.94
2018-11-05T18:02:45.216Z,73.68
2018-11-05T18:05:13.931Z,73.22
2018-11-05T18:07:43.446Z,73.10
2018-11-05T18:10:11.892Z,73.03
2018-11-05T18:12:40.216Z,73.04
2018-11-05T18:15:10.423Z,73.20
2018-11-05T18:17:39.460Z,74.23
2018-11-05T18:20:10.977Z,75.15
2018-11-05T18:22:39.624Z,75.36
2018-11-05T18:25:10.420Z,75.46
2018-11-05T18:27:38.722Z,75.20
2018-11-05T18:30:08.867Z,75.27
2018-11-05T18:32:37.165Z,75.60
2018-11-05T18:35:07.528Z,75.74
2018-11-05T18:37:35.865Z,75.86
2018-11-05T18:40:06.994Z,75.33
2018-11-05T18:42:35.350Z,74.18
2018-11-05T18:45:03.979Z,73.22
2018-11-05T18:47:32.275Z,74.17
2018-11-05T18:50:00.808Z,73.95
2018-11-05T18:52:29.159Z,73.44
2018-11-05T18:54:57.546Z,73.85
2018-11-05T18:57:25.816Z,73.41
2018-11-05T18:59:54.103Z,73.32
2018-11-05T19:02:27.943Z,73.09
2018-11-05T19:04:56.249Z,73.35
2018-11-05T19:07:24.531Z,73.65
2018-11-05T19:09:52.859Z,73.72
2018-11-05T19:12:21.284Z,74.62
2018-11-05T19:14:49.535Z,74.64
2018-11-05T19:17:18.923Z,75.11
2018-11-05T19:19:47.969Z,73.90
2018-11-05T19:22:17.653Z,73.88
2018-11-05T19:24:46.050Z,74.84
2018-11-05T19:27:14.539Z,75.09
2018-11-05T19:29:42.841Z,75.13
2018-11-05T19:32:11.107Z,75.78
2018-11-05T19:34:39.360Z,74.81
2018-11-05T19:37:08.103Z,75.01
2018-11-05T19:39:36.421Z,75.38
2018-11-05T19:42:05.071Z,75.93
2018-11-05T19:44:33.297Z,76.61
2018-11-05T19:47:01.567Z,76.64
2018-11-05T19:49:29.795Z,76.84
2018-11-05T19:51:58.059Z,76.08
2018-11-05T19:54:26.340Z,76.40
2018-11-05T19:56:54.729Z,76.45
2018-11-05T19:59:23.031Z,77.03
2018-11-05T20:01:51.265Z,77.65
2018-11-05T20:04:20.557Z,76.69
2018-11-05T20:06:48.846Z,77.09
2018-11-05T20:09:17.949Z,76.61
2018-11-05T20:11:46.497Z,76.83
2018-11-05T20:14:14.787Z,76.72
2018-11-05T20:16:43.134Z,77.31
2018-11-05T20:19:11.869Z,77.15
2018-11-05T20:21:40.045Z,77.48
2018-11-05T20:24:08.397Z,77.63
2018-11-05T20:26:36.716Z,76.86
2018-11-05T20:29:05.415Z,77.08
2018-11-05T20:31:33.889Z,76.95
2018-11-05T20:34:02.279Z,77.11
2018-11-05T20:36:30.969Z,77.29
2018-11-05T20:38:59.535Z,77.55
2018-11-05T20:41:27.806Z,77.68
2018-11-05T20:43:56.031Z,77.91
2018-11-05T20:46:24.333Z,77.75
2018-11-05T20:48:52.679Z,77.81
2018-11-05T20:51:20.948Z,77.94
2018-11-05T20:53:49.291Z,78.28
2018-11-05T20:56:17.904Z,78.24
2018-11-05T20:58:46.234Z,77.91
2018-11-05T21:01:14.503Z,78.14
2018-11-05T21:03:42.768Z,78.49
2018-11-05T21:06:11.054Z,78.14
2018-11-05T21:08:39.429Z,77.95
2018-11-05T21:11:07.734Z,77.00
2018-11-05T21:13:35.983Z,76.93
2018-11-05T21:16:04.541Z,77.15
2018-11-05T21:18:32.800Z,77.70
2018-11-05T21:21:01.152Z,77.96
2018-11-05T21:23:29.377Z,77.54
2018-11-05T21:25:58.308Z,78.41
2018-11-05T21:28:26.921Z,78.55
2018-11-05T21:30:55.182Z,77.97
2018-11-05T21:33:23.433Z,77.93
2018-11-05T21:35:52.041Z,78.15
2018-11-05T21:38:20.313Z,77.16
2018-11-05T21:40:48.660Z,76.85
2018-11-05T21:43:16.877Z,76.69
2018-11-05T21:45:45.208Z,76.66
2018-11-05T21:48:13.444Z,76.75
2018-11-05T21:50:41.656Z,76.61
2018-11-05T21:53:09.976Z,76.80
2018-11-05T21:55:38.391Z,77.13
2018-11-05T21:58:06.651Z,77.18
2018-11-05T22:00:34.911Z,77.28
2018-11-05T22:03:04.202Z,77.99
2018-11-05T22:05:32.461Z,77.76
2018-11-05T22:08:00.796Z,77.75
2018-11-05T22:10:29.078Z,77.91
2018-11-05T22:12:57.434Z,77.95
2018-11-05T22:15:30.459Z,78.12
2018-11-05T22:17:58.887Z,78.24
2018-11-05T22:20:27.094Z,78.35
2018-11-05T22:22:55.330Z,77.88
2018-11-05T22:25:24.244Z,78.05
2018-11-05T22:27:52.462Z,77.94
2018-11-05T22:30:20.760Z,78.57
2018-11-05T22:32:48.997Z,77.91
2018-11-05T22:35:17.291Z,77.54
2018-11-05T22:37:45.563Z,77.33
2018-11-05T22:40:14.752Z,77.41
2018-11-05T22:42:43.019Z,77.65
2018-11-05T22:45:12.698Z,77.89
2018-11-05T22:47:41.256Z,78.05
2018-11-05T22:50:09.705Z,78.53
2018-11-05T22:52:38.775Z,78.16
2018-11-05T22:55:07.617Z,77.90
2018-11-05T22:57:35.879Z,77.97
2018-11-05T23:00:07.416Z,78.07
2018-11-05T23:02:36.075Z,78.80
2018-11-05T23:05:04.379Z,78.35
2018-11-05T23:07:32.579Z,78.52
2018-11-05T23:10:01.819Z,78.51
2018-11-05T23:12:30.730Z,78.63
2018-11-05T23:14:58.987Z,78.77
2018-11-05T23:17:27.209Z,78.56
2018-11-05T23:19:55.486Z,78.58
2018-11-05T23:22:23.755Z,78.71
2018-11-05T23:24:52.121Z,78.59
2018-11-05T23:27:20.667Z,78.69
2018-11-05T23:29:48.948Z,78.80
2018-11-05T23:32:17.165Z,78.54
2018-11-05T23:34:45.419Z,78.28
2018-11-05T23:37:13.625Z,78.57
2018-11-05T23:39:42.543Z,78.74
2018-11-05T23:42:10.768Z,78.41
2018-11-05T23:44:38.985Z,77.66
2018-11-05T23:47:07.206Z,77.57
2018-11-05T23:49:36.198Z,77.99
2018-11-05T23:52:04.474Z,77.82
2018-11-05T23:54:32.727Z,77.29
2018-11-05T23:57:00.955Z,78.04
2018-11-05T23:59:29.187Z,78.50
